sensor_id;sensor_type;location;lat;lon;timestamp;P1;durP1;ratioP1;P2;durP2;ratioP2
66118;SDS011;52912;48.564;9.302;2023-05-07T00:00:56;4.35;;;2.88;;
66118;SDS011;52912;48.564;9.302;2023-05-07T00:03:21;6.22;;;3.00;;
66118;SDS011;52912;48.564;9.302;2023-05-07T00:05:47;5.68;;;3.10;;
66118;SDS011;52912;48.564;9.302;2023-05-07T00:08:12;4.15;;;2.70;;
66118;SDS011;52912;48.564;9.302;2023-05-07T00:10:38;7.35;;;3.10;;
66118;SDS011;52912;48.564;9.302;2023-05-07T00:13:03;5.70;;;2.90;;
66118;SDS011;52912;48.564;9.302;2023-05-07T00:15:30;5.75;;;3.28;;
66118;SDS011;52912;48.564;9.302;2023-05-07T00:17:55;7.22;;;3.03;;
66118;SDS011;52912;48.564;9.302;2023-05-07T00:20:21;4.57;;;2.92;;
66118;SDS011;52912;48.564;9.302;2023-05-07T00:22:46;6.68;;;3.25;;
66118;SDS011;52912;48.564;9.302;2023-05-07T00:25:12;7.50;;;3.10;;
66118;SDS011;52912;48.564;9.302;2023-05-07T00:27:37;5.38;;;3.22;;
66118;SDS011;52912;48.564;9.302;2023-05-07T00:30:03;7.10;;;2.90;;
66118;SDS011;52912;48.564;9.302;2023-05-07T00:32:31;6.82;;;3.15;;
66118;SDS011;52912;48.564;9.302;2023-05-07T00:34:56;7.53;;;3.75;;
66118;SDS011;52912;48.564;9.302;2023-05-07T00:37:21;6.68;;;3.20;;
66118;SDS011;52912;48.564;9.302;2023-05-07T00:39:47;8.57;;;3.20;;
66118;SDS011;52912;48.564;9.302;2023-05-07T00:42:12;4.15;;;2.78;;
66118;SDS011;52912;48.564;9.302;2023-05-07T00:44:38;7.20;;;3.03;;
66118;SDS011;52912;48.564;9.302;2023-05-07T00:47:03;7.78;;;3.72;;
66118;SDS011;52912;48.564;9.302;2023-05-07T00:49:34;6.90;;;3.33;;
66118;SDS011;52912;48.564;9.302;2023-05-07T00:52:03;4.28;;;3.40;;
66118;SDS011;52912;48.564;9.302;2023-05-07T00:54:30;8.70;;;3.95;;
66118;SDS011;52912;48.564;9.302;2023-05-07T00:56:56;7.88;;;4.32;;
66118;SDS011;52912;48.564;9.302;2023-05-07T00:59:21;8.05;;;3.78;;
66118;SDS011;52912;48.564;9.302;2023-05-07T01:01:47;5.68;;;3.90;;
66118;SDS011;52912;48.564;9.302;2023-05-07T01:04:12;5.32;;;3.72;;
66118;SDS011;52912;48.564;9.302;2023-05-07T01:06:39;9.18;;;4.13;;
66118;SDS011;52912;48.564;9.302;2023-05-07T01:09:05;7.65;;;3.50;;
66118;SDS011;52912;48.564;9.302;2023-05-07T01:11:31;7.88;;;4.10;;
66118;SDS011;52912;48.564;9.302;2023-05-07T01:13:57;8.70;;;4.00;;
66118;SDS011;52912;48.564;9.302;2023-05-07T01:16:24;5.60;;;3.53;;
66118;SDS011;52912;48.564;9.302;2023-05-07T01:18:49;6.78;;;4.25;;
66118;SDS011;52912;48.564;9.302;2023-05-07T01:21:15;9.13;;;4.20;;
66118;SDS011;52912;48.564;9.302;2023-05-07T01:23:44;6.88;;;3.78;;
66118;SDS011;52912;48.564;9.302;2023-05-07T01:26:09;6.32;;;4.30;;
66118;SDS011;52912;48.564;9.302;2023-05-07T01:28:35;8.65;;;4.35;;
66118;SDS011;52912;48.564;9.302;2023-05-07T01:31:01;7.63;;;4.15;;
66118;SDS011;52912;48.564;9.302;2023-05-07T01:33:29;8.83;;;3.90;;
66118;SDS011;52912;48.564;9.302;2023-05-07T01:35:56;6.50;;;3.90;;
66118;SDS011;52912;48.564;9.302;2023-05-07T01:38:23;6.88;;;4.05;;
66118;SDS011;52912;48.564;9.302;2023-05-07T01:40:51;6.50;;;3.83;;
66118;SDS011;52912;48.564;9.302;2023-05-07T01:43:16;7.68;;;4.20;;
66118;SDS011;52912;48.564;9.302;2023-05-07T01:45:42;7.45;;;3.85;;
66118;SDS011;52912;48.564;9.302;2023-05-07T01:48:09;6.22;;;4.38;;
66118;SDS011;52912;48.564;9.302;2023-05-07T01:50:35;7.05;;;4.43;;
66118;SDS011;52912;48.564;9.302;2023-05-07T01:53:01;6.95;;;3.85;;
66118;SDS011;52912;48.564;9.302;2023-05-07T01:55:27;6.30;;;4.20;;
66118;SDS011;52912;48.564;9.302;2023-05-07T01:57:54;7.05;;;3.85;;
66118;SDS011;52912;48.564;9.302;2023-05-07T02:00:20;5.25;;;3.50;;
66118;SDS011;52912;48.564;9.302;2023-05-07T02:02:45;7.57;;;4.40;;
66118;SDS011;52912;48.564;9.302;2023-05-07T02:05:11;6.35;;;3.60;;
66118;SDS011;52912;48.564;9.302;2023-05-07T02:07:36;5.05;;;3.72;;
66118;SDS011;52912;48.564;9.302;2023-05-07T02:10:02;5.35;;;3.25;;
66118;SDS011;52912;48.564;9.302;2023-05-07T02:12:28;4.68;;;3.58;;
66118;SDS011;52912;48.564;9.302;2023-05-07T02:14:54;9.35;;;3.83;;
66118;SDS011;52912;48.564;9.302;2023-05-07T02:17:20;6.40;;;4.18;;
66118;SDS011;52912;48.564;9.302;2023-05-07T02:19:45;8.60;;;3.45;;
66118;SDS011;52912;48.564;9.302;2023-05-07T02:22:11;7.50;;;2.97;;
66118;SDS011;52912;48.564;9.302;2023-05-07T02:24:36;4.60;;;3.03;;
66118;SDS011;52912;48.564;9.302;2023-05-07T02:27:02;8.18;;;3.17;;
66118;SDS011;52912;48.564;9.302;2023-05-07T02:29:27;5.90;;;3.17;;
66118;SDS011;52912;48.564;9.302;2023-05-07T02:31:54;10.95;;;3.95;;
66118;SDS011;52912;48.564;9.302;2023-05-07T02:34:19;6.47;;;3.22;;
66118;SDS011;52912;48.564;9.302;2023-05-07T02:36:45;4.70;;;3.42;;
66118;SDS011;52912;48.564;9.302;2023-05-07T02:39:12;5.07;;;3.17;;
66118;SDS011;52912;48.564;9.302;2023-05-07T02:41:37;8.23;;;3.60;;
66118;SDS011;52912;48.564;9.302;2023-05-07T02:44:03;7.03;;;3.88;;
66118;SDS011;52912;48.564;9.302;2023-05-07T02:46:29;7.60;;;3.70;;
66118;SDS011;52912;48.564;9.302;2023-05-07T02:48:55;8.70;;;3.83;;
66118;SDS011;52912;48.564;9.302;2023-05-07T02:51:21;4.93;;;3.63;;
66118;SDS011;52912;48.564;9.302;2023-05-07T02:53:47;5.35;;;3.47;;
66118;SDS011;52912;48.564;9.302;2023-05-07T02:56:13;8.75;;;4.10;;
66118;SDS011;52912;48.564;9.302;2023-05-07T02:58:38;5.32;;;3.60;;
66118;SDS011;52912;48.564;9.302;2023-05-07T03:01:04;8.80;;;3.70;;
66118;SDS011;52912;48.564;9.302;2023-05-07T03:03:29;9.05;;;3.63;;
66118;SDS011;52912;48.564;9.302;2023-05-07T03:05:56;6.55;;;3.42;;
66118;SDS011;52912;48.564;9.302;2023-05-07T03:08:21;7.90;;;3.53;;
66118;SDS011;52912;48.564;9.302;2023-05-07T03:10:47;8.68;;;3.60;;
66118;SDS011;52912;48.564;9.302;2023-05-07T03:13:13;10.85;;;3.38;;
66118;SDS011;52912;48.564;9.302;2023-05-07T03:15:38;7.70;;;3.50;;
66118;SDS011;52912;48.564;9.302;2023-05-07T03:18:04;4.78;;;3.28;;
66118;SDS011;52912;48.564;9.302;2023-05-07T03:20:29;11.90;;;3.63;;
66118;SDS011;52912;48.564;9.302;2023-05-07T03:22:56;9.00;;;3.45;;
66118;SDS011;52912;48.564;9.302;2023-05-07T03:25:22;6.55;;;3.50;;
66118;SDS011;52912;48.564;9.302;2023-05-07T03:27:47;9.50;;;3.30;;
66118;SDS011;52912;48.564;9.302;2023-05-07T03:30:13;6.10;;;3.35;;
66118;SDS011;52912;48.564;9.302;2023-05-07T03:32:38;6.90;;;3.40;;
66118;SDS011;52912;48.564;9.302;2023-05-07T03:35:04;7.40;;;3.67;;
66118;SDS011;52912;48.564;9.302;2023-05-07T03:37:30;7.28;;;3.60;;
66118;SDS011;52912;48.564;9.302;2023-05-07T03:39:56;8.88;;;3.60;;
66118;SDS011;52912;48.564;9.302;2023-05-07T03:42:22;8.25;;;3.67;;
66118;SDS011;52912;48.564;9.302;2023-05-07T03:44:47;9.48;;;4.00;;
66118;SDS011;52912;48.564;9.302;2023-05-07T03:47:13;6.55;;;3.58;;
66118;SDS011;52912;48.564;9.302;2023-05-07T03:49:38;7.05;;;4.10;;
66118;SDS011;52912;48.564;9.302;2023-05-07T03:52:04;7.35;;;3.42;;
66118;SDS011;52912;48.564;9.302;2023-05-07T03:54:29;5.78;;;3.50;;
66118;SDS011;52912;48.564;9.302;2023-05-07T03:56:56;4.60;;;3.28;;
66118;SDS011;52912;48.564;9.302;2023-05-07T03:59:22;6.53;;;3.83;;
66118;SDS011;52912;48.564;9.302;2023-05-07T04:01:47;5.82;;;4.18;;
66118;SDS011;52912;48.564;9.302;2023-05-07T04:04:13;4.72;;;3.47;;
66118;SDS011;52912;48.564;9.302;2023-05-07T04:06:38;5.65;;;3.83;;
66118;SDS011;52912;48.564;9.302;2023-05-07T04:09:04;5.57;;;3.90;;
66118;SDS011;52912;48.564;9.302;2023-05-07T04:11:29;6.63;;;3.53;;
66118;SDS011;52912;48.564;9.302;2023-05-07T04:13:56;6.38;;;3.65;;
66118;SDS011;52912;48.564;9.302;2023-05-07T04:16:21;6.80;;;3.92;;
66118;SDS011;52912;48.564;9.302;2023-05-07T04:18:47;5.75;;;3.70;;
66118;SDS011;52912;48.564;9.302;2023-05-07T04:21:15;6.32;;;3.83;;
66118;SDS011;52912;48.564;9.302;2023-05-07T04:23:41;5.35;;;3.67;;
66118;SDS011;52912;48.564;9.302;2023-05-07T04:26:07;6.97;;;3.85;;
66118;SDS011;52912;48.564;9.302;2023-05-07T04:28:32;5.57;;;3.95;;
66118;SDS011;52912;48.564;9.302;2023-05-07T04:30:59;6.07;;;3.80;;
66118;SDS011;52912;48.564;9.302;2023-05-07T04:33:24;6.28;;;4.40;;
66118;SDS011;52912;48.564;9.302;2023-05-07T04:35:50;6.00;;;4.25;;
66118;SDS011;52912;48.564;9.302;2023-05-07T04:38:15;5.22;;;4.07;;
66118;SDS011;52912;48.564;9.302;2023-05-07T04:40:41;8.55;;;4.28;;
66118;SDS011;52912;48.564;9.302;2023-05-07T04:43:06;9.05;;;4.43;;
66118;SDS011;52912;48.564;9.302;2023-05-07T04:45:32;6.38;;;4.22;;
66118;SDS011;52912;48.564;9.302;2023-05-07T04:47:59;5.28;;;4.13;;
66118;SDS011;52912;48.564;9.302;2023-05-07T04:50:24;7.78;;;4.60;;
66118;SDS011;52912;48.564;9.302;2023-05-07T04:52:49;11.05;;;4.53;;
66118;SDS011;52912;48.564;9.302;2023-05-07T04:55:15;12.43;;;4.70;;
66118;SDS011;52912;48.564;9.302;2023-05-07T04:57:40;9.88;;;5.90;;
66118;SDS011;52912;48.564;9.302;2023-05-07T05:00:06;23.05;;;11.60;;
66118;SDS011;52912;48.564;9.302;2023-05-07T05:02:32;11.13;;;6.28;;
66118;SDS011;52912;48.564;9.302;2023-05-07T05:04:59;7.65;;;4.65;;
66118;SDS011;52912;48.564;9.302;2023-05-07T05:07:25;6.88;;;4.05;;
66118;SDS011;52912;48.564;9.302;2023-05-07T05:09:50;6.40;;;4.15;;
66118;SDS011;52912;48.564;9.302;2023-05-07T05:12:16;10.82;;;4.60;;
66118;SDS011;52912;48.564;9.302;2023-05-07T05:14:41;11.38;;;4.32;;
66118;SDS011;52912;48.564;9.302;2023-05-07T05:17:07;8.85;;;4.60;;
66118;SDS011;52912;48.564;9.302;2023-05-07T05:19:32;5.20;;;4.30;;
66118;SDS011;52912;48.564;9.302;2023-05-07T05:21:59;8.32;;;4.30;;
66118;SDS011;52912;48.564;9.302;2023-05-07T05:24:24;6.60;;;4.72;;
66118;SDS011;52912;48.564;9.302;2023-05-07T05:26:50;9.30;;;4.32;;
66118;SDS011;52912;48.564;9.302;2023-05-07T05:29:17;5.35;;;3.88;;
66118;SDS011;52912;48.564;9.302;2023-05-07T05:31:43;9.02;;;4.00;;
66118;SDS011;52912;48.564;9.302;2023-05-07T05:34:08;6.05;;;3.90;;
66118;SDS011;52912;48.564;9.302;2023-05-07T05:36:34;5.63;;;4.50;;
66118;SDS011;52912;48.564;9.302;2023-05-07T05:39:00;6.40;;;4.35;;
66118;SDS011;52912;48.564;9.302;2023-05-07T05:41:26;6.68;;;3.88;;
66118;SDS011;52912;48.564;9.302;2023-05-07T05:43:51;6.03;;;3.92;;
66118;SDS011;52912;48.564;9.302;2023-05-07T05:46:17;5.72;;;4.03;;
66118;SDS011;52912;48.564;9.302;2023-05-07T05:48:42;6.20;;;3.92;;
66118;SDS011;52912;48.564;9.302;2023-05-07T05:51:08;7.72;;;3.95;;
66118;SDS011;52912;48.564;9.302;2023-05-07T05:53:33;6.35;;;3.78;;
66118;SDS011;52912;48.564;9.302;2023-05-07T05:56:00;6.10;;;3.97;;
66118;SDS011;52912;48.564;9.302;2023-05-07T05:58:25;5.50;;;3.85;;
66118;SDS011;52912;48.564;9.302;2023-05-07T06:00:51;6.43;;;4.25;;
66118;SDS011;52912;48.564;9.302;2023-05-07T06:03:17;8.73;;;4.30;;
66118;SDS011;52912;48.564;9.302;2023-05-07T06:05:42;8.20;;;4.53;;
66118;SDS011;52912;48.564;9.302;2023-05-07T06:08:08;6.85;;;3.75;;
66118;SDS011;52912;48.564;9.302;2023-05-07T06:10:33;7.05;;;3.85;;
66118;SDS011;52912;48.564;9.302;2023-05-07T06:13:02;7.57;;;3.60;;
66118;SDS011;52912;48.564;9.302;2023-05-07T06:15:27;8.00;;;4.40;;
66118;SDS011;52912;48.564;9.302;2023-05-07T06:17:53;7.63;;;4.28;;
66118;SDS011;52912;48.564;9.302;2023-05-07T06:20:18;5.90;;;3.67;;
66118;SDS011;52912;48.564;9.302;2023-05-07T06:22:44;7.00;;;3.92;;
66118;SDS011;52912;48.564;9.302;2023-05-07T06:25:09;6.38;;;4.10;;
66118;SDS011;52912;48.564;9.302;2023-05-07T06:27:34;6.18;;;3.90;;
66118;SDS011;52912;48.564;9.302;2023-05-07T06:30:01;8.55;;;3.78;;
66118;SDS011;52912;48.564;9.302;2023-05-07T06:32:27;10.90;;;4.50;;
66118;SDS011;52912;48.564;9.302;2023-05-07T06:34:52;5.25;;;3.70;;
66118;SDS011;52912;48.564;9.302;2023-05-07T06:37:18;7.43;;;4.35;;
66118;SDS011;52912;48.564;9.302;2023-05-07T06:39:43;7.55;;;4.20;;
66118;SDS011;52912;48.564;9.302;2023-05-07T06:42:09;6.88;;;3.70;;
66118;SDS011;52912;48.564;9.302;2023-05-07T06:44:34;5.45;;;3.47;;
66118;SDS011;52912;48.564;9.302;2023-05-07T06:47:01;7.10;;;3.67;;
66118;SDS011;52912;48.564;9.302;2023-05-07T06:49:27;5.93;;;3.88;;
66118;SDS011;52912;48.564;9.302;2023-05-07T06:51:52;5.93;;;4.22;;
66118;SDS011;52912;48.564;9.302;2023-05-07T06:54:17;5.72;;;3.92;;
66118;SDS011;52912;48.564;9.302;2023-05-07T06:56:43;6.15;;;4.03;;
66118;SDS011;52912;48.564;9.302;2023-05-07T06:59:08;6.10;;;3.95;;
66118;SDS011;52912;48.564;9.302;2023-05-07T07:01:34;8.27;;;3.92;;
66118;SDS011;52912;48.564;9.302;2023-05-07T07:04:01;7.70;;;4.30;;
66118;SDS011;52912;48.564;9.302;2023-05-07T07:06:26;5.50;;;3.80;;
66118;SDS011;52912;48.564;9.302;2023-05-07T07:08:52;5.25;;;3.92;;
66118;SDS011;52912;48.564;9.302;2023-05-07T07:11:17;5.78;;;3.83;;
66118;SDS011;52912;48.564;9.302;2023-05-07T07:13:42;8.18;;;3.80;;
66118;SDS011;52912;48.564;9.302;2023-05-07T07:16:08;6.30;;;4.18;;
66118;SDS011;52912;48.564;9.302;2023-05-07T07:18:33;8.00;;;4.07;;
66118;SDS011;52912;48.564;9.302;2023-05-07T07:21:00;8.13;;;4.00;;
66118;SDS011;52912;48.564;9.302;2023-05-07T07:23:26;6.72;;;3.70;;
66118;SDS011;52912;48.564;9.302;2023-05-07T07:25:51;9.93;;;3.95;;
66118;SDS011;52912;48.564;9.302;2023-05-07T07:28:17;9.25;;;4.00;;
66118;SDS011;52912;48.564;9.302;2023-05-07T07:30:42;9.15;;;4.07;;
66118;SDS011;52912;48.564;9.302;2023-05-07T07:33:08;6.20;;;3.85;;
66118;SDS011;52912;48.564;9.302;2023-05-07T07:35:33;7.80;;;4.05;;
66118;SDS011;52912;48.564;9.302;2023-05-07T07:38:00;5.43;;;3.80;;
66118;SDS011;52912;48.564;9.302;2023-05-07T07:40:26;9.43;;;4.05;;
66118;SDS011;52912;48.564;9.302;2023-05-07T07:42:51;5.95;;;3.53;;
66118;SDS011;52912;48.564;9.302;2023-05-07T07:45:17;7.18;;;3.95;;
66118;SDS011;52912;48.564;9.302;2023-05-07T07:47:43;6.25;;;4.05;;
66118;SDS011;52912;48.564;9.302;2023-05-07T07:50:08;5.90;;;3.88;;
66118;SDS011;52912;48.564;9.302;2023-05-07T07:52:34;6.65;;;3.90;;
66118;SDS011;52912;48.564;9.302;2023-05-07T07:55:01;7.88;;;3.97;;
66118;SDS011;52912;48.564;9.302;2023-05-07T07:57:27;5.80;;;4.00;;
66118;SDS011;52912;48.564;9.302;2023-05-07T07:59:52;8.73;;;3.95;;
66118;SDS011;52912;48.564;9.302;2023-05-07T08:02:18;5.68;;;3.90;;
66118;SDS011;52912;48.564;9.302;2023-05-07T08:04:43;5.13;;;4.03;;
66118;SDS011;52912;48.564;9.302;2023-05-07T08:07:09;7.13;;;4.10;;
66118;SDS011;52912;48.564;9.302;2023-05-07T08:09:34;7.15;;;3.92;;
66118;SDS011;52912;48.564;9.302;2023-05-07T08:12:01;4.65;;;3.70;;
66118;SDS011;52912;48.564;9.302;2023-05-07T08:14:27;6.07;;;4.22;;
66118;SDS011;52912;48.564;9.302;2023-05-07T08:16:53;5.97;;;3.95;;
66118;SDS011;52912;48.564;9.302;2023-05-07T08:19:18;7.05;;;4.30;;
66118;SDS011;52912;48.564;9.302;2023-05-07T08:21:43;6.30;;;4.22;;
66118;SDS011;52912;48.564;9.302;2023-05-07T08:24:09;6.07;;;4.10;;
66118;SDS011;52912;48.564;9.302;2023-05-07T08:26:34;4.97;;;3.65;;
66118;SDS011;52912;48.564;9.302;2023-05-07T08:29:01;8.10;;;4.10;;
66118;SDS011;52912;48.564;9.302;2023-05-07T08:31:27;6.25;;;4.07;;
66118;SDS011;52912;48.564;9.302;2023-05-07T08:33:52;5.50;;;3.92;;
66118;SDS011;52912;48.564;9.302;2023-05-07T08:36:18;6.38;;;3.90;;
66118;SDS011;52912;48.564;9.302;2023-05-07T08:38:43;6.32;;;3.95;;
66118;SDS011;52912;48.564;9.302;2023-05-07T08:41:09;7.80;;;4.20;;
66118;SDS011;52912;48.564;9.302;2023-05-07T08:43:35;7.35;;;4.05;;
66118;SDS011;52912;48.564;9.302;2023-05-07T08:46:04;6.38;;;4.00;;
66118;SDS011;52912;48.564;9.302;2023-05-07T08:48:30;5.32;;;4.00;;
66118;SDS011;52912;48.564;9.302;2023-05-07T08:50:57;8.82;;;3.90;;
66118;SDS011;52912;48.564;9.302;2023-05-07T08:53:23;7.93;;;3.75;;
66118;SDS011;52912;48.564;9.302;2023-05-07T08:55:49;5.63;;;3.65;;
66118;SDS011;52912;48.564;9.302;2023-05-07T08:58:15;7.95;;;3.70;;
66118;SDS011;52912;48.564;9.302;2023-05-07T09:00:40;5.38;;;3.60;;
66118;SDS011;52912;48.564;9.302;2023-05-07T09:03:08;4.50;;;3.33;;
66118;SDS011;52912;48.564;9.302;2023-05-07T09:05:33;7.85;;;3.30;;
66118;SDS011;52912;48.564;9.302;2023-05-07T09:07:59;6.93;;;3.10;;
66118;SDS011;52912;48.564;9.302;2023-05-07T09:10:25;7.13;;;3.30;;
66118;SDS011;52912;48.564;9.302;2023-05-07T09:12:50;5.85;;;3.40;;
66118;SDS011;52912;48.564;9.302;2023-05-07T09:15:16;5.47;;;3.03;;
66118;SDS011;52912;48.564;9.302;2023-05-07T09:17:43;4.60;;;2.90;;
66118;SDS011;52912;48.564;9.302;2023-05-07T09:20:10;4.70;;;3.15;;
66118;SDS011;52912;48.564;9.302;2023-05-07T09:22:36;5.32;;;3.05;;
66118;SDS011;52912;48.564;9.302;2023-05-07T09:25:02;4.25;;;2.72;;
66118;SDS011;52912;48.564;9.302;2023-05-07T09:27:29;4.75;;;2.70;;
66118;SDS011;52912;48.564;9.302;2023-05-07T09:29:55;4.85;;;2.80;;
66118;SDS011;52912;48.564;9.302;2023-05-07T09:32:20;5.20;;;2.75;;
66118;SDS011;52912;48.564;9.302;2023-05-07T09:34:46;4.07;;;2.40;;
66118;SDS011;52912;48.564;9.302;2023-05-07T09:37:13;4.28;;;2.47;;
66118;SDS011;52912;48.564;9.302;2023-05-07T09:39:39;7.40;;;2.85;;
66118;SDS011;52912;48.564;9.302;2023-05-07T09:42:05;4.68;;;2.70;;
66118;SDS011;52912;48.564;9.302;2023-05-07T09:44:31;4.70;;;2.50;;
66118;SDS011;52912;48.564;9.302;2023-05-07T09:46:57;6.75;;;2.40;;
66118;SDS011;52912;48.564;9.302;2023-05-07T09:49:25;3.28;;;2.30;;
66118;SDS011;52912;48.564;9.302;2023-05-07T09:51:54;5.22;;;2.10;;
66118;SDS011;52912;48.564;9.302;2023-05-07T09:54:22;2.40;;;1.80;;
66118;SDS011;52912;48.564;9.302;2023-05-07T09:56:48;6.53;;;2.10;;
66118;SDS011;52912;48.564;9.302;2023-05-07T09:59:14;3.03;;;2.00;;
66118;SDS011;52912;48.564;9.302;2023-05-07T10:01:41;4.00;;;1.98;;
66118;SDS011;52912;48.564;9.302;2023-05-07T10:04:07;2.58;;;1.90;;
66118;SDS011;52912;48.564;9.302;2023-05-07T10:06:33;3.92;;;2.00;;
66118;SDS011;52912;48.564;9.302;2023-05-07T10:08:59;3.67;;;1.98;;
66118;SDS011;52912;48.564;9.302;2023-05-07T10:11:27;3.75;;;1.70;;
66118;SDS011;52912;48.564;9.302;2023-05-07T10:13:53;4.05;;;1.85;;
66118;SDS011;52912;48.564;9.302;2023-05-07T10:16:18;4.65;;;1.80;;
66118;SDS011;52912;48.564;9.302;2023-05-07T10:18:44;3.30;;;1.80;;
66118;SDS011;52912;48.564;9.302;2023-05-07T10:21:11;2.60;;;1.75;;
66118;SDS011;52912;48.564;9.302;2023-05-07T10:23:41;3.97;;;1.75;;
66118;SDS011;52912;48.564;9.302;2023-05-07T10:26:09;2.88;;;1.85;;
66118;SDS011;52912;48.564;9.302;2023-05-07T10:28:38;4.07;;;2.00;;
66118;SDS011;52912;48.564;9.302;2023-05-07T10:31:13;4.65;;;2.17;;
66118;SDS011;52912;48.564;9.302;2023-05-07T10:33:48;5.78;;;2.13;;
66118;SDS011;52912;48.564;9.302;2023-05-07T10:36:16;3.13;;;2.13;;
66118;SDS011;52912;48.564;9.302;2023-05-07T10:38:42;5.40;;;2.10;;
66118;SDS011;52912;48.564;9.302;2023-05-07T10:41:08;3.05;;;1.80;;
66118;SDS011;52912;48.564;9.302;2023-05-07T10:43:42;4.60;;;2.05;;
66118;SDS011;52912;48.564;9.302;2023-05-07T10:46:09;3.60;;;2.05;;
66118;SDS011;52912;48.564;9.302;2023-05-07T10:48:35;3.90;;;1.70;;
66118;SDS011;52912;48.564;9.302;2023-05-07T10:51:35;2.75;;;1.60;;
66118;SDS011;52912;48.564;9.302;2023-05-07T10:54:19;6.90;;;2.00;;
66118;SDS011;52912;48.564;9.302;2023-05-07T10:56:46;3.42;;;1.88;;
66118;SDS011;52912;48.564;9.302;2023-05-07T11:02:03;4.15;;;1.90;;
66118;SDS011;52912;48.564;9.302;2023-05-07T11:04:28;4.25;;;1.80;;
66118;SDS011;52912;48.564;9.302;2023-05-07T11:10:01;3.22;;;1.90;;
66118;SDS011;52912;48.564;9.302;2023-05-07T11:15:14;3.85;;;1.92;;
66118;SDS011;52912;48.564;9.302;2023-05-07T11:17:57;4.57;;;1.90;;
66118;SDS011;52912;48.564;9.302;2023-05-07T11:23:17;2.92;;;1.90;;
66118;SDS011;52912;48.564;9.302;2023-05-07T11:26:40;3.35;;;1.90;;
66118;SDS011;52912;48.564;9.302;2023-05-07T11:29:10;3.30;;;1.80;;
66118;SDS011;52912;48.564;9.302;2023-05-07T11:31:37;3.38;;;1.67;;
66118;SDS011;52912;48.564;9.302;2023-05-07T11:34:03;3.53;;;1.95;;
66118;SDS011;52912;48.564;9.302;2023-05-07T11:36:30;4.35;;;1.90;;
66118;SDS011;52912;48.564;9.302;2023-05-07T11:38:56;5.80;;;2.03;;
66118;SDS011;52912;48.564;9.302;2023-05-07T11:41:22;4.55;;;1.88;;
66118;SDS011;52912;48.564;9.302;2023-05-07T11:43:54;3.40;;;2.08;;
66118;SDS011;52912;48.564;9.302;2023-05-07T11:46:20;2.58;;;1.90;;
66118;SDS011;52912;48.564;9.302;2023-05-07T11:48:47;3.80;;;1.90;;
66118;SDS011;52912;48.564;9.302;2023-05-07T11:51:12;4.53;;;1.90;;
66118;SDS011;52912;48.564;9.302;2023-05-07T11:53:43;3.63;;;1.50;;
66118;SDS011;52912;48.564;9.302;2023-05-07T11:56:10;4.43;;;1.48;;
66118;SDS011;52912;48.564;9.302;2023-05-07T11:58:36;1.83;;;1.30;;
66118;SDS011;52912;48.564;9.302;2023-05-07T12:01:02;2.83;;;1.50;;
66118;SDS011;52912;48.564;9.302;2023-05-07T12:03:28;3.97;;;1.48;;
66118;SDS011;52912;48.564;9.302;2023-05-07T12:05:55;2.50;;;1.20;;
66118;SDS011;52912;48.564;9.302;2023-05-07T12:08:21;2.53;;;1.25;;
66118;SDS011;52912;48.564;9.302;2023-05-07T12:10:48;2.08;;;1.40;;
66118;SDS011;52912;48.564;9.302;2023-05-07T12:13:15;2.75;;;1.35;;
66118;SDS011;52912;48.564;9.302;2023-05-07T12:15:41;4.10;;;1.35;;
66118;SDS011;52912;48.564;9.302;2023-05-07T12:18:07;1.95;;;1.40;;
66118;SDS011;52912;48.564;9.302;2023-05-07T12:20:33;1.85;;;1.50;;
66118;SDS011;52912;48.564;9.302;2023-05-07T12:23:00;2.17;;;1.30;;
66118;SDS011;52912;48.564;9.302;2023-05-07T12:25:26;7.20;;;1.40;;
66118;SDS011;52912;48.564;9.302;2023-05-07T12:27:54;2.33;;;1.48;;
66118;SDS011;52912;48.564;9.302;2023-05-07T12:30:20;2.80;;;1.60;;
66118;SDS011;52912;48.564;9.302;2023-05-07T12:32:45;5.50;;;2.30;;
66118;SDS011;52912;48.564;9.302;2023-05-07T12:35:11;5.75;;;1.85;;
66118;SDS011;52912;48.564;9.302;2023-05-07T12:37:36;4.07;;;1.85;;
66118;SDS011;52912;48.564;9.302;2023-05-07T12:40:07;4.35;;;1.88;;
66118;SDS011;52912;48.564;9.302;2023-05-07T12:42:35;5.05;;;1.83;;
66118;SDS011;52912;48.564;9.302;2023-05-07T12:45:07;6.82;;;2.30;;
66118;SDS011;52912;48.564;9.302;2023-05-07T12:47:33;4.45;;;2.17;;
66118;SDS011;52912;48.564;9.302;2023-05-07T12:49:59;5.35;;;2.35;;
66118;SDS011;52912;48.564;9.302;2023-05-07T12:52:24;4.57;;;2.40;;
66118;SDS011;52912;48.564;9.302;2023-05-07T12:54:50;5.57;;;2.15;;
66118;SDS011;52912;48.564;9.302;2023-05-07T12:57:18;3.65;;;2.10;;
66118;SDS011;52912;48.564;9.302;2023-05-07T12:59:44;4.18;;;2.25;;
66118;SDS011;52912;48.564;9.302;2023-05-07T13:02:10;5.53;;;2.25;;
66118;SDS011;52912;48.564;9.302;2023-05-07T13:04:35;3.90;;;2.33;;
66118;SDS011;52912;48.564;9.302;2023-05-07T13:07:01;6.03;;;2.35;;
66118;SDS011;52912;48.564;9.302;2023-05-07T13:09:27;5.40;;;2.30;;
66118;SDS011;52912;48.564;9.302;2023-05-07T13:11:52;5.60;;;2.50;;
66118;SDS011;52912;48.564;9.302;2023-05-07T13:14:19;3.38;;;2.28;;
66118;SDS011;52912;48.564;9.302;2023-05-07T13:16:45;5.07;;;2.22;;
66118;SDS011;52912;48.564;9.302;2023-05-07T13:19:10;5.70;;;2.30;;
66118;SDS011;52912;48.564;9.302;2023-05-07T13:21:36;5.57;;;2.33;;
66118;SDS011;52912;48.564;9.302;2023-05-07T13:24:01;5.18;;;1.90;;
66118;SDS011;52912;48.564;9.302;2023-05-07T13:26:27;7.18;;;1.80;;
66118;SDS011;52912;48.564;9.302;2023-05-07T13:28:52;4.60;;;1.85;;
66118;SDS011;52912;48.564;9.302;2023-05-07T13:31:19;3.75;;;1.55;;
66118;SDS011;52912;48.564;9.302;2023-05-07T13:33:45;3.63;;;1.88;;
66118;SDS011;52912;48.564;9.302;2023-05-07T13:36:10;5.72;;;1.70;;
66118;SDS011;52912;48.564;9.302;2023-05-07T13:38:36;6.50;;;1.80;;
66118;SDS011;52912;48.564;9.302;2023-05-07T13:41:01;4.65;;;1.90;;
66118;SDS011;52912;48.564;9.302;2023-05-07T13:43:26;3.83;;;1.90;;
66118;SDS011;52912;48.564;9.302;2023-05-07T13:45:52;4.55;;;2.00;;
66118;SDS011;52912;48.564;9.302;2023-05-07T13:48:19;8.23;;;2.30;;
66118;SDS011;52912;48.564;9.302;2023-05-07T13:50:44;9.98;;;2.92;;
66118;SDS011;52912;48.564;9.302;2023-05-07T13:53:10;6.47;;;2.35;;
66118;SDS011;52912;48.564;9.302;2023-05-07T13:55:35;3.58;;;2.30;;
66118;SDS011;52912;48.564;9.302;2023-05-07T13:58:01;6.88;;;3.67;;
66118;SDS011;52912;48.564;9.302;2023-05-07T14:00:27;5.45;;;2.25;;
66118;SDS011;52912;48.564;9.302;2023-05-07T14:02:53;6.57;;;2.60;;
66118;SDS011;52912;48.564;9.302;2023-05-07T14:05:20;7.50;;;2.28;;
66118;SDS011;52912;48.564;9.302;2023-05-07T14:07:46;5.72;;;2.40;;
66118;SDS011;52912;48.564;9.302;2023-05-07T14:10:11;7.68;;;3.03;;
66118;SDS011;52912;48.564;9.302;2023-05-07T14:12:37;7.20;;;2.90;;
66118;SDS011;52912;48.564;9.302;2023-05-07T14:15:03;5.07;;;2.85;;
66118;SDS011;52912;48.564;9.302;2023-05-07T14:17:28;4.93;;;2.83;;
66118;SDS011;52912;48.564;9.302;2023-05-07T14:19:54;5.38;;;2.67;;
66118;SDS011;52912;48.564;9.302;2023-05-07T14:22:21;8.25;;;3.03;;
66118;SDS011;52912;48.564;9.302;2023-05-07T14:24:47;5.93;;;2.80;;
66118;SDS011;52912;48.564;9.302;2023-05-07T14:27:12;7.72;;;3.20;;
66118;SDS011;52912;48.564;9.302;2023-05-07T14:29:38;7.10;;;2.90;;
66118;SDS011;52912;48.564;9.302;2023-05-07T14:32:04;6.65;;;2.92;;
66118;SDS011;52912;48.564;9.302;2023-05-07T14:34:30;7.80;;;3.67;;
66118;SDS011;52912;48.564;9.302;2023-05-07T14:36:56;8.98;;;3.45;;
66118;SDS011;52912;48.564;9.302;2023-05-07T14:39:22;7.70;;;3.80;;
66118;SDS011;52912;48.564;9.302;2023-05-07T14:41:48;6.72;;;3.35;;
66118;SDS011;52912;48.564;9.302;2023-05-07T14:44:13;8.45;;;4.03;;
66118;SDS011;52912;48.564;9.302;2023-05-07T14:46:39;11.68;;;3.67;;
66118;SDS011;52912;48.564;9.302;2023-05-07T14:49:04;8.35;;;3.30;;
66118;SDS011;52912;48.564;9.302;2023-05-07T14:51:30;8.38;;;3.45;;
66118;SDS011;52912;48.564;9.302;2023-05-07T14:53:55;7.47;;;3.30;;